ěÝzenÝ letovÚho provozu ╚eskÚ republiky
Letiste: LKBC Aktualizace: 21.01.2020 22:00:26  UTC
 METAR LKBC 21.01. 22:00 ...
METAR LKBC 212200Z AUTO VRB02KT 2100 BR OVC002 M03/M04 Q1037=